Time;durP1;ratioP1;P1;durP2;ratioP2;P2;SDS_P1;SDS_P2;PMS_P1;PMS_P2;Temp;Humidity;BMP_temperature;BMP_pressure;BME280_temperature;BME280_humidity;BME280_pressure;Samples;Min_cycle;Max_cycle;Signal;HPM_P1;HPM_P2
2022/06/24 03:48:08;;;;;;;2.97;2.00;;;;;;;18.46;100.00;98046.75;5123632;27;102838;-78
2022/06/24 03:50:36;;;;;;;2.20;2.00;;;;;;;18.68;100.00;98054.00;5104482;27;103988;-76
2022/06/24 03:53:10;;;;;;;4.03;2.30;;;;;;;18.91;100.00;98046.81;5121999;27;103328;-76
2022/06/24 03:55:38;;;;;;;4.73;2.43;;;;;;;19.07;100.00;98045.84;5122131;27;103293;-76
2022/06/24 03:58:06;;;;;;;3.22;2.50;;;;;;;19.14;100.00;98044.13;5101940;27;103966;-76
2022/06/24 04:00:34;;;;;;;4.60;2.10;;;;;;;19.36;100.00;98042.44;5122615;27;102633;-76
2022/06/24 04:03:02;;;;;;;3.20;1.90;;;;;;;19.53;98.56;98038.63;5123948;27;103547;-76
2022/06/24 04:05:31;;;;;;;3.85;2.38;;;;;;;19.58;97.88;98038.88;5103636;27;104231;-76
2022/06/24 04:07:59;;;;;;;5.38;2.78;;;;;;;19.63;96.99;98044.53;5102513;27;102788;-76
2022/06/24 04:10:27;;;;;;;5.03;2.73;;;;;;;19.74;95.70;98038.72;5122414;27;104120;-76
2022/06/24 04:12:54;;;;;;;5.05;2.80;;;;;;;19.77;95.61;98040.19;5103261;27;103265;-75
2022/06/24 04:15:22;;;;;;;5.65;2.40;;;;;;;19.86;95.59;98045.28;5104436;27;103327;-76
2022/06/24 04:17:50;;;;;;;2.45;1.90;;;;;;;20.04;94.98;98048.41;5120932;27;102995;-77
2022/06/24 04:20:20;;;;;;;4.87;2.77;;;;;;;20.16;93.79;98043.41;5119874;27;102840;-77
2022/06/24 04:22:50;;;;;;;3.75;1.95;;;;;;;20.35;92.21;98044.72;5124276;27;104071;-77
2022/06/24 04:25:18;;;;;;;2.78;2.08;;;;;;;20.55;90.21;98045.78;5125082;27;103199;-77
2022/06/24 04:27:46;;;;;;;4.63;2.63;;;;;;;20.51;89.57;98042.66;5106146;27;102649;-78
2022/06/24 04:30:14;;;;;;;2.83;2.00;;;;;;;20.59;89.75;98047.06;5123143;27;102726;-76
2022/06/24 04:32:42;;;;;;;4.20;2.47;;;;;;;20.58;89.57;98045.38;5084321;27;104314;-75
2022/06/24 04:35:10;;;;;;;5.03;2.50;;;;;;;20.69;89.29;98050.25;5115240;27;103213;-76
2022/06/24 04:37:39;;;;;;;4.90;2.58;;;;;;;20.67;89.46;98045.09;5096600;27;102835;-76
2022/06/24 04:40:11;;;;;;;5.03;2.50;;;;;;;20.78;88.68;98041.06;5030147;27;104143;-76
2022/06/24 04:42:39;;;;;;;4.30;2.50;;;;;;;20.75;88.58;98038.78;5034608;27;103313;-76
2022/06/24 04:45:08;;;;;;;4.85;2.38;;;;;;;20.75;89.45;98046.81;5051350;27;103240;-76
2022/06/24 04:47:37;;;;;;;3.47;2.03;;;;;;;20.87;88.05;98045.31;5052947;27;102645;-77
2022/06/24 04:50:05;;;;;;;5.05;2.50;;;;;;;20.69;89.27;98044.91;5031145;27;104640;-76
2022/06/24 04:52:35;;;;;;;6.25;2.85;;;;;;;20.78;88.81;98036.53;5043802;27;104016;-77
2022/06/24 04:55:04;;;;;;;4.45;2.40;;;;;;;21.02;87.64;98034.50;5050417;27;103330;-76
2022/06/24 04:57:33;;;;;;;3.63;2.05;;;;;;;21.07;87.14;98030.25;5035745;27;103122;-76
2022/06/24 05:00:02;;;;;;;4.83;2.63;;;;;;;21.15;86.68;98027.44;5035356;27;103024;-76
2022/06/24 05:02:30;;;;;;;4.38;2.40;;;;;;;21.25;86.53;98022.53;5030650;27;104339;-76
2022/06/24 05:05:03;;;;;;;3.38;1.98;;;;;;;21.41;86.12;98028.66;5031603;27;103465;-76
2022/06/24 05:07:31;;;;;;;4.77;2.70;;;;;;;21.29;86.42;98029.19;5028353;27;102933;-77
2022/06/24 05:09:59;;;;;;;5.43;2.70;;;;;;;21.44;86.14;98031.81;5044383;27;102881;-77
2022/06/24 05:12:27;;;;;;;3.72;2.40;;;;;;;21.56;85.98;98026.72;5027039;27;103266;-74
2022/06/24 05:14:57;;;;;;;4.03;2.40;;;;;;;21.60;86.14;98026.13;5042684;27;103211;-77
2022/06/24 05:17:26;;;;;;;2.53;2.03;;;;;;;21.67;86.00;98027.00;5042514;27;102804;-73
2022/06/24 05:19:54;;;;;;;3.85;1.98;;;;;;;21.82;85.09;98025.03;5039562;27;102931;-77
2022/06/24 05:22:22;;;;;;;3.63;2.63;;;;;;;21.95;84.59;98030.50;5041183;27;103947;-77
2022/06/24 05:24:50;;;;;;;5.32;2.33;;;;;;;21.93;84.33;98027.19;5029346;27;103189;-76
2022/06/24 05:27:20;;;;;;;3.13;2.03;;;;;;;22.06;83.94;98015.69;5033435;27;103064;-77
2022/06/24 05:29:48;;;;;;;4.43;2.72;;;;;;;22.10;83.89;98022.31;5043246;27;104108;-77
2022/06/24 05:32:17;;;;;;;3.67;2.33;;;;;;;22.17;83.87;98019.66;5026070;27;104580;-77
2022/06/24 05:34:45;;;;;;;5.88;2.65;;;;;;;22.20;83.88;98012.03;5033663;27;103477;-76
2022/06/24 05:37:13;;;;;;;4.88;2.92;;;;;;;22.20;83.75;98012.03;5035596;27;102694;-77
2022/06/24 05:39:41;;;;;;;4.30;2.30;;;;;;;22.36;82.12;98008.16;5033619;27;102916;-75
2022/06/24 05:42:09;;;;;;;2.85;1.95;;;;;;;22.46;81.89;98000.50;5040097;27;103815;-76
2022/06/24 05:44:39;;;;;;;3.50;2.20;;;;;;;22.58;80.40;98006.13;5037275;27;103209;-75
2022/06/24 05:47:08;;;;;;;3.27;2.30;;;;;;;22.67;79.24;98008.47;5036420;27;103001;-75
2022/06/24 05:49:37;;;;;;;3.65;2.30;;;;;;;22.57;79.65;98010.69;5036518;27;102736;-79
2022/06/24 05:52:05;;;;;;;3.13;1.90;;;;;;;22.72;79.21;98002.47;5035252;27;104416;-78
2022/06/24 05:57:19;;;;;;;3.67;2.20;;;;;;;22.77;80.50;98005.38;5045083;27;102566;-79
2022/06/24 05:59:46;;;;;;;4.03;2.30;;;;;;;22.68;80.66;98002.03;5037646;27;103783;-79
2022/06/24 06:02:15;;;;;;;4.47;1.88;;;;;;;22.62;79.94;98012.78;5045848;27;103293;-79
2022/06/24 06:04:44;;;;;;;5.10;2.45;;;;;;;22.80;80.92;98010.34;5043729;27;103238;-79
2022/06/24 06:07:12;;;;;;;6.05;2.50;;;;;;;22.79;80.93;98008.72;5043747;27;103328;-79
2022/06/24 06:09:41;;;;;;;5.22;2.20;;;;;;;22.91;80.16;98020.53;5043344;27;103903;-79
2022/06/24 06:12:09;;;;;;;3.97;2.17;;;;;;;23.11;78.71;98007.91;5023413;27;104310;-79
2022/06/24 06:14:37;;;;;;;4.38;2.30;;;;;;;23.05;78.46;98008.72;5025904;27;104246;-79
2022/06/24 06:17:05;;;;;;;7.45;3.00;;;;;;;23.05;78.04;98000.66;5037122;27;102703;-79
2022/06/24 06:19:34;;;;;;;4.95;2.13;;;;;;;23.32;78.68;98002.34;5045779;27;102671;-79
2022/06/24 06:22:04;;;;;;;4.82;2.33;;;;;;;23.46;76.05;98004.00;5044794;27;103249;-80
2022/06/24 06:24:32;;;;;;;4.55;2.60;;;;;;;23.50;74.44;97999.84;5039013;27;103083;-81
2022/06/24 06:27:00;;;;;;;7.05;2.83;;;;;;;23.45;74.70;98010.44;5042708;27;102804;-81
2022/06/24 06:29:28;;;;;;;6.43;2.63;;;;;;;23.55;74.42;98013.53;5038341;27;103609;-81
2022/06/24 06:31:56;;;;;;;7.10;2.40;;;;;;;23.51;73.60;98012.31;5043475;27;103739;-81
2022/06/24 06:34:24;;;;;;;5.27;2.90;;;;;;;23.29;72.76;98018.91;5040054;27;103182;-81
2022/06/24 06:36:55;;;;;;;5.83;2.43;;;;;;;23.34;73.80;98021.81;5042791;27;102589;-81
2022/06/24 06:39:24;;;;;;;5.63;2.45;;;;;;;23.40;73.45;98018.31;5035956;27;102741;-79
2022/06/24 06:41:52;;;;;;;5.65;2.80;;;;;;;23.63;73.19;98015.19;5041751;27;102674;-81
2022/06/24 06:44:20;;;;;;;5.60;2.50;;;;;;;23.77;70.96;98019.53;5039450;27;103247;-79
2022/06/24 06:46:49;;;;;;;5.87;2.30;;;;;;;23.97;71.99;98020.28;5037467;27;102908;-80
2022/06/24 06:49:17;;;;;;;7.63;2.30;;;;;;;23.90;71.46;98015.94;5040198;27;104625;-80
2022/06/24 06:51:45;;;;;;;5.03;2.30;;;;;;;23.92;71.49;98008.47;5037824;27;103318;-80
2022/06/24 06:54:13;;;;;;;3.63;2.00;;;;;;;24.21;70.12;98013.41;5044144;27;103183;-81
2022/06/24 06:56:43;;;;;;;4.50;2.30;;;;;;;24.24;69.80;98015.69;5038050;27;102632;-80
2022/06/24 06:59:11;;;;;;;4.30;2.50;;;;;;;24.25;70.04;98014.66;5042805;27;103761;-80
2022/06/24 07:01:39;;;;;;;5.67;2.50;;;;;;;24.42;68.60;98013.09;5043122;27;103264;-80
2022/06/24 07:04:07;;;;;;;5.07;2.40;;;;;;;24.81;67.71;98008.56;5044689;27;103348;-80
2022/06/24 07:06:35;;;;;;;5.13;2.40;;;;;;;24.75;67.56;98005.66;5033788;27;102676;-80
2022/06/24 07:09:03;;;;;;;5.93;2.25;;;;;;;24.73;66.93;98002.34;5041804;27;103767;-80
2022/06/24 07:11:31;;;;;;;5.45;2.15;;;;;;;24.85;67.24;98007.06;5013043;27;104397;-80
2022/06/24 07:14:01;;;;;;;5.70;2.53;;;;;;;24.84;66.87;98002.72;5040978;27;103219;-79
2022/06/24 07:16:29;;;;;;;4.30;2.25;;;;;;;24.39;69.07;98010.84;5043042;27;102622;-80
2022/06/24 07:18:57;;;;;;;5.75;2.33;;;;;;;23.65;69.50;98013.09;5036291;27;104356;-80
2022/06/24 07:21:25;;;;;;;5.80;2.73;;;;;;;23.65;69.79;98013.94;5044458;27;104358;-80
2022/06/24 07:23:55;;;;;;;5.07;2.22;;;;;;;24.10;69.94;98012.19;5038591;27;105480;-80
2022/06/24 07:26:23;;;;;;;4.75;2.08;;;;;;;24.54;69.18;98018.66;5044254;27;102843;-80
2022/06/24 07:28:53;;;;;;;5.65;2.40;;;;;;;24.31;68.43;98015.66;5027216;27;102824;-80
2022/06/24 07:31:22;;;;;;;4.80;2.40;;;;;;;24.69;67.72;98009.22;5043606;27;103499;-80
2022/06/24 07:33:50;;;;;;;4.40;2.50;;;;;;;24.97;67.01;98029.66;5042715;27;103255;-80
2022/06/24 07:36:18;;;;;;;4.65;2.47;;;;;;;24.64;66.93;98013.63;5044071;27;102590;-81
2022/06/24 07:38:46;;;;;;;4.82;2.55;;;;;;;24.50;67.58;98012.88;5017172;27;102938;-81
2022/06/24 07:41:14;;;;;;;3.75;2.47;;;;;;;24.27;67.19;98015.25;5029373;27;103936;-80
2022/06/24 07:43:42;;;;;;;3.42;2.20;;;;;;;25.21;63.56;98009.94;5040418;27;103492;-81
2022/06/24 07:46:11;;;;;;;3.78;2.25;;;;;;;25.51;64.01;98013.69;5034971;27;102756;-80
2022/06/24 07:48:40;;;;;;;4.07;2.20;;;;;;;25.67;63.35;98004.16;5029393;27;104160;-77
2022/06/24 07:51:10;;;;;;;4.90;2.10;;;;;;;25.87;62.87;98005.63;5039766;27;103255;-77
2022/06/24 07:53:38;;;;;;;3.53;1.88;;;;;;;25.42;62.65;98004.16;5039452;27;103246;-77
2022/06/24 07:58:51;;;;;;;4.10;2.30;;;;;;;24.67;64.71;97995.09;5040079;27;103048;-77
2022/06/24 08:01:19;;;;;;;5.10;2.22;;;;;;;24.71;64.49;97996.34;5040739;27;104146;-77
2022/06/24 08:03:49;;;;;;;3.30;2.17;;;;;;;25.06;64.22;98001.34;5029355;27;103193;-77
2022/06/24 08:06:17;;;;;;;3.10;2.08;;;;;;;25.56;62.63;97986.78;5023959;27;102831;-77
2022/06/24 08:08:45;;;;;;;4.20;2.30;;;;;;;25.91;61.37;97979.75;5024242;27;102804;-77
2022/06/24 08:11:13;;;;;;;4.45;2.20;;;;;;;26.31;60.11;97982.00;5038503;27;103271;-77
2022/06/24 08:13:41;;;;;;;4.00;2.25;;;;;;;26.53;60.93;97966.91;5038649;27;103398;-77
2022/06/24 08:16:09;;;;;;;6.30;2.80;;;;;;;26.65;59.09;97965.09;5027262;27;102886;-77
2022/06/24 08:18:37;;;;;;;4.22;2.00;;;;;;;27.18;58.34;97964.28;5034847;27;102761;-78
2022/06/24 08:21:06;;;;;;;3.87;1.93;;;;;;;27.30;56.46;97970.56;5039488;27;103265;-78
2022/06/24 08:23:36;;;;;;;3.47;2.00;;;;;;;27.36;55.65;97966.94;5030702;27;103232;-78
2022/06/24 08:26:05;;;;;;;3.55;1.80;;;;;;;27.01;54.99;97969.56;5042642;27;102629;-77
2022/06/24 08:28:33;;;;;;;4.00;1.60;;;;;;;28.24;53.35;97970.28;5030840;27;104246;-78
2022/06/24 08:31:02;;;;;;;4.80;1.90;;;;;;;28.28;50.03;97970.63;5039535;27;103349;-78
2022/06/24 08:33:32;;;;;;;3.80;1.90;;;;;;;27.98;52.73;97951.81;5043003;27;103190;-78
2022/06/24 08:36:03;;;;;;;2.58;1.55;;;;;;;28.56;49.02;97951.63;5042520;27;102847;-78
2022/06/24 08:38:33;;;;;;;3.17;1.70;;;;;;;29.08;50.95;97955.88;5045086;27;102709;-78
2022/06/24 08:41:03;;;;;;;6.27;2.07;;;;;;;27.84;50.23;97959.41;5044424;27;104072;-78
2022/06/24 08:43:32;;;;;;;2.92;1.45;;;;;;;27.92;52.30;97952.75;5031544;27;103316;-78
2022/06/24 08:46:00;;;;;;;3.63;1.73;;;;;;;28.26;50.85;97945.63;5025870;27;102664;-78
2022/06/24 08:48:38;;;;;;;2.05;1.65;;;;;;;28.73;50.82;97947.94;5046114;27;103875;-78
2022/06/24 08:51:06;;;;;;;3.40;1.60;;;;;;;28.64;49.80;97948.56;5032746;27;104620;-79
2022/06/24 08:53:38;;;;;;;5.47;1.90;;;;;;;27.52;50.46;97949.97;5037749;27;103389;-78
2022/06/24 08:56:07;;;;;;;3.17;1.90;;;;;;;27.74;51.78;97944.75;5035974;27;102921;-78
2022/06/24 08:58:36;;;;;;;5.55;2.28;;;;;;;26.90;57.51;97948.69;5046509;27;104126;-78
2022/06/24 09:01:15;;;;;;;7.57;3.20;;;;;;;25.41;65.04;97956.53;5040611;27;104848;-82
2022/06/24 09:03:44;;;;;;;8.20;3.57;;;;;;;24.73;68.16;97953.72;5035856;27;103289;-83
2022/06/24 09:06:14;;;;;;;4.43;2.50;;;;;;;26.05;65.69;97949.84;5037208;27;102948;-82
2022/06/24 09:08:48;;;;;;;3.70;2.37;;;;;;;26.55;64.27;97943.16;5042797;27;103866;-82
2022/06/24 09:11:16;;;;;;;4.40;2.83;;;;;;;25.53;66.45;97949.38;5041252;27;104346;-82
2022/06/24 09:13:48;;;;;;;3.00;2.27;;;;;;;26.34;65.49;97936.38;5039410;27;103195;-82
2022/06/24 09:16:18;;;;;;;4.73;2.60;;;;;;;26.70;61.48;97940.84;5032689;27;102745;-83
2022/06/24 09:18:54;;;;;;;5.55;2.70;;;;;;;27.02;62.23;97938.72;5039605;27;102874;-83
2022/06/24 09:21:23;;;;;;;3.80;2.33;;;;;;;27.54;60.13;97928.84;5026606;27;103807;-82
2022/06/24 09:23:55;;;;;;;3.17;2.00;;;;;;;28.18;56.54;97928.63;5042091;27;103198;-82
2022/06/24 09:26:31;;;;;;;5.32;2.58;;;;;;;28.79;54.64;97927.09;5038906;27;102779;-82
2022/06/24 09:29:00;;;;;;;4.00;2.15;;;;;;;29.20;51.51;97926.69;5044322;27;102852;-81
2022/06/24 09:31:31;;;;;;;4.47;2.33;;;;;;;29.36;52.17;97933.25;5034473;27;103359;-82
2022/06/24 09:34:08;;;;;;;4.38;2.10;;;;;;;29.46;49.73;97930.66;5046096;27;103599;-81
2022/06/24 09:36:37;;;;;;;3.80;2.22;;;;;;;29.88;50.77;97922.84;5043736;27;102978;-81
2022/06/24 09:39:09;;;;;;;3.80;2.30;;;;;;;30.46;53.07;97918.69;5028187;27;102988;-81
2022/06/24 09:41:46;;;;;;;3.28;2.00;;;;;;;31.29;49.45;97913.47;5045382;27;103041;-81
2022/06/24 09:44:15;;;;;;;4.78;2.15;;;;;;;30.68;50.54;97916.72;5047226;27;103732;-82
2022/06/24 09:46:44;;;;;;;4.47;2.20;;;;;;;29.70;51.95;97917.69;5041937;27;102780;-81
2022/06/24 09:49:13;;;;;;;3.63;2.30;;;;;;;29.40;51.34;97920.78;5033512;27;104243;-82
2022/06/24 09:51:45;;;;;;;4.15;2.28;;;;;;;27.04;55.74;97913.03;5041930;27;104000;-81
2022/06/24 09:54:15;;;;;;;3.40;2.20;;;;;;;28.03;55.41;97925.63;5042053;27;102798;-81
2022/06/24 09:56:45;;;;;;;4.10;2.70;;;;;;;27.94;53.89;97921.59;5030144;27;102998;-82
2022/06/24 10:02:04;;;;;;;3.35;2.30;;;;;;;27.85;56.21;97919.47;5042392;27;103247;-81
2022/06/24 10:04:35;;;;;;;3.97;2.60;;;;;;;28.81;53.77;97910.53;5043881;27;103273;-80
2022/06/24 10:07:04;;;;;;;3.90;2.17;;;;;;;28.09;54.34;97913.81;5041630;27;102847;-79
2022/06/24 10:09:37;;;;;;;3.85;2.53;;;;;;;25.90;61.28;97921.28;5035939;27;103070;-80
2022/06/24 10:12:06;;;;;;;5.30;2.55;;;;;;;26.46;59.98;97914.75;5042106;27;103344;-80
2022/06/24 10:14:34;;;;;;;3.22;2.13;;;;;;;26.71;60.44;97920.00;5037922;27;103217;-80
2022/06/24 10:17:02;;;;;;;5.70;2.55;;;;;;;26.60;59.82;97918.09;5032033;27;102720;-80
2022/06/24 10:19:32;;;;;;;5.13;2.73;;;;;;;26.09;60.94;97918.56;5035257;27;102978;-80
2022/06/24 10:22:00;;;;;;;5.97;2.73;;;;;;;27.56;58.46;97913.19;5052198;27;104215;-80
2022/06/24 10:24:42;;;;;;;4.60;2.80;;;;;;;28.24;58.65;97909.75;5031652;27;104121;-80
2022/06/24 10:27:10;;;;;;;2.47;2.20;;;;;;;29.01;55.47;97911.72;5034882;27;102674;-80
2022/06/24 10:29:38;;;;;;;6.60;2.45;;;;;;;29.22;52.78;97915.63;5034753;27;104075;-80
2022/06/24 10:32:09;;;;;;;5.13;2.33;;;;;;;29.63;52.58;97914.31;5023834;27;105182;-80
2022/06/24 10:34:44;;;;;;;3.50;1.90;;;;;;;29.94;50.90;97910.13;5038075;27;103221;-79
2022/06/24 10:37:26;;;;;;;4.45;2.30;;;;;;;28.85;52.74;97917.16;5040246;27;102863;-79
2022/06/24 10:39:57;;;;;;;3.47;2.25;;;;;;;28.57;54.23;97917.97;5036763;27;102785;-80
2022/06/24 10:42:25;;;;;;;6.15;2.30;;;;;;;27.35;55.65;97921.88;5032588;27;103146;-79
2022/06/24 10:44:58;;;;;;;5.88;2.30;;;;;;;27.17;57.26;97913.88;5042207;27;103192;-80
2022/06/24 10:47:29;;;;;;;3.30;2.30;;;;;;;28.83;54.13;97920.09;5038467;27;103341;-79
2022/06/24 10:50:06;;;;;;;4.97;2.55;;;;;;;27.90;55.76;97915.00;5022035;27;104354;-79
2022/06/24 10:52:35;;;;;;;3.38;2.50;;;;;;;27.46;56.88;97910.22;5042467;27;103530;-79
2022/06/24 10:55:37;;;;;;;3.33;2.30;;;;;;;28.47;55.00;97905.03;5031974;27;103233;-79
2022/06/24 10:58:13;;;;;;;3.42;1.85;;;;;;;28.36;54.50;97905.91;5037074;27;103299;-79
2022/06/24 11:00:59;;;;;;;3.83;2.20;;;;;;;28.66;52.99;97897.53;5029647;27;102688;-80
2022/06/24 11:03:37;;;;;;;2.22;1.73;;;;;;;28.02;54.41;97907.66;5040950;27;103293;-79
2022/06/24 11:06:12;;;;;;;3.13;2.30;;;;;;;27.89;54.65;97896.25;5028640;27;103295;-79
2022/06/24 11:08:40;;;;;;;2.67;1.90;;;;;;;28.36;54.18;97902.34;5040590;27;102917;-80
2022/06/24 11:11:09;;;;;;;3.65;2.00;;;;;;;29.03;51.93;97904.13;5029774;27;104406;-80
2022/06/24 11:13:37;;;;;;;3.50;2.20;;;;;;;28.78;52.02;97890.13;5031666;27;104311;-80
2022/06/24 11:16:05;;;;;;;2.03;1.70;;;;;;;28.49;51.46;97897.44;5029302;27;103210;-80
2022/06/24 11:18:35;;;;;;;4.45;2.55;;;;;;;27.46;56.11;97897.50;5033764;27;102653;-79
2022/06/24 11:21:04;;;;;;;3.88;2.10;;;;;;;27.97;54.42;97893.97;5017285;27;102762;-80
2022/06/24 11:23:37;;;;;;;4.90;2.20;;;;;;;28.36;52.48;97896.94;5030618;27;104395;-80
2022/06/24 11:26:07;;;;;;;2.35;1.90;;;;;;;29.52;50.65;97891.59;5032761;27;103196;-80
2022/06/24 11:28:38;;;;;;;5.77;2.10;;;;;;;29.59;49.17;97896.81;5040635;27;103135;-80
2022/06/24 11:31:18;;;;;;;6.55;2.38;;;;;;;27.00;54.00;97898.28;5030136;27;104232;-80
2022/06/24 11:33:48;;;;;;;3.58;1.73;;;;;;;27.51;53.04;97911.16;5036484;27;104649;-79
2022/06/24 11:36:20;;;;;;;3.65;1.80;;;;;;;27.79;52.17;97896.84;5041817;27;103262;-81
2022/06/24 11:38:55;;;;;;;3.40;1.77;;;;;;;27.67;52.40;97893.34;5037380;27;103164;-80
2022/06/24 11:41:29;;;;;;;4.22;1.80;;;;;;;27.52;54.54;97887.59;5039973;27;104067;-82
2022/06/24 11:44:32;;;;;;;2.33;1.73;;;;;;;28.33;52.02;97886.53;5040436;27;103757;-82
2022/06/24 11:47:00;;;;;;;2.67;1.60;;;;;;;27.88;52.59;97889.16;5027428;27;103919;-83
2022/06/24 11:49:31;;;;;;;2.10;1.40;;;;;;;28.28;52.52;97881.84;5033925;27;102644;-81
2022/06/24 11:51:59;;;;;;;2.63;1.65;;;;;;;28.13;53.13;97887.81;5031193;27;104401;-82
2022/06/24 11:54:28;;;;;;;1.52;1.40;;;;;;;28.75;51.21;97885.16;5007458;27;104204;-83
2022/06/24 11:56:57;;;;;;;1.77;1.30;;;;;;;28.76;52.57;97881.41;5034518;27;104520;-83
2022/06/24 11:59:27;;;;;;;2.17;1.35;;;;;;;28.75;50.28;97874.31;5036172;27;102864;-83
2022/06/24 12:01:58;;;;;;;2.88;1.55;;;;;;;27.95;49.73;97882.56;5021588;27;102797;-83
2022/06/24 12:04:27;;;;;;;3.53;2.20;;;;;;;28.13;48.98;97870.69;5040117;27;103908;-84
2022/06/24 12:07:04;;;;;;;2.40;1.60;;;;;;;27.16;50.38;97879.69;5032187;27;103329;-83
2022/06/24 12:09:33;;;;;;;3.13;1.48;;;;;;;27.01;51.42;97874.72;5033072;27;102699;-86
2022/06/24 12:12:09;;;;;;;2.28;1.45;;;;;;;27.18;50.38;97866.69;5029119;27;103531;-83
2022/06/24 12:14:39;;;;;;;2.37;1.50;;;;;;;27.14;51.29;97870.97;5036266;27;104453;-84
2022/06/24 12:17:08;;;;;;;3.35;1.40;;;;;;;28.98;51.29;97870.59;5019287;27;103150;-79
2022/06/24 12:19:55;;;;;;;1.40;1.27;;;;;;;29.30;49.90;97872.50;5022612;27;102836;-78
2022/06/24 12:22:23;;;;;;;2.03;1.30;;;;;;;29.39;50.10;97869.38;5024726;27;102898;-78
2022/06/24 12:25:01;;;;;;;1.75;1.20;;;;;;;28.71;50.53;97867.72;5034804;27;102745;-78
2022/06/24 12:27:34;;;;;;;2.13;1.20;;;;;;;28.24;49.37;97858.16;5027629;27;103793;-81
2022/06/24 12:30:07;;;;;;;2.07;1.50;;;;;;;27.52;51.06;97863.19;5027962;27;102908;-86
2022/06/24 12:32:49;;;;;;;3.60;1.58;;;;;;;28.01;51.44;97862.59;5039144;27;103675;-78
2022/06/24 12:35:30;;;;;;;1.40;1.30;;;;;;;28.74;47.90;97861.81;5041004;27;103804;-80
2022/06/24 12:37:58;;;;;;;2.58;1.35;;;;;;;28.33;47.12;97864.81;5010704;27;102767;-79
2022/06/24 12:40:26;;;;;;;2.38;1.20;;;;;;;28.97;50.75;97869.78;5040195;27;102888;-76
2022/06/24 12:43:05;;;;;;;1.40;1.30;;;;;;;28.40;49.87;97876.38;5037580;27;104503;-77
2022/06/24 12:45:37;;;;;;;2.50;1.10;;;;;;;28.91;49.25;97873.50;5044517;27;104900;-78
2022/06/24 12:50:59;;;;;;;2.50;1.40;;;;;;;28.56;49.82;97881.84;5044472;27;102885;-80
2022/06/24 12:53:27;;;;;;;3.53;1.60;;;;;;;27.04;49.68;97887.81;5038271;27;103311;-78
2022/06/24 12:55:55;;;;;;;1.30;1.20;;;;;;;27.93;51.35;97887.38;5041993;27;104210;-77
2022/06/24 12:58:23;;;;;;;1.58;1.20;;;;;;;28.33;53.23;97876.50;5036974;27;103340;-76
2022/06/24 13:00:55;;;;;;;2.35;1.30;;;;;;;28.43;51.02;97889.47;5045231;27;102888;-79
2022/06/24 13:03:23;;;;;;;1.50;1.30;;;;;;;28.40;50.51;97879.09;5037274;27;102879;-85
2022/06/24 13:05:51;;;;;;;2.20;1.10;;;;;;;27.98;49.65;97895.66;5026998;27;104581;-85
2022/06/24 13:08:20;;;;;;;3.60;1.47;;;;;;;27.52;53.03;97895.72;5021631;27;103196;-78
2022/06/24 13:10:49;;;;;;;1.10;1.00;;;;;;;27.50;50.18;97882.41;5032124;27;103028;-83
2022/06/24 13:13:17;;;;;;;3.10;1.45;;;;;;;27.61;49.88;97888.88;5042169;27;103752;-78
2022/06/24 13:15:48;;;;;;;2.03;1.30;;;;;;;27.67;50.82;97885.22;5034670;27;104339;-83
2022/06/24 13:18:18;;;;;;;1.97;1.30;;;;;;;26.67;51.32;97878.16;5042068;27;102601;-85
2022/06/24 13:20:46;;;;;;;1.55;1.30;;;;;;;26.66;50.96;97863.81;5029757;27;102856;-84
2022/06/24 13:23:14;;;;;;;1.52;0.90;;;;;;;27.64;52.62;97861.28;5029164;27;104380;-83
2022/06/24 13:25:45;;;;;;;1.70;1.10;;;;;;;28.16;52.30;97860.19;5040549;27;103873;-82
2022/06/24 13:28:14;;;;;;;1.70;1.20;;;;;;;28.18;50.43;97852.59;5041550;27;103009;-84
2022/06/24 13:30:42;;;;;;;1.83;1.20;;;;;;;28.27;51.41;97844.91;5038989;27;102733;-84
2022/06/24 13:33:10;;;;;;;1.42;1.20;;;;;;;28.35;50.71;97851.84;5037239;27;102652;-84
2022/06/24 13:35:39;;;;;;;3.00;1.63;;;;;;;27.80;51.76;97865.13;5023204;27;104378;-84
2022/06/24 13:38:07;;;;;;;1.98;1.60;;;;;;;27.58;53.90;97856.81;5021059;27;104413;-83
2022/06/24 13:40:36;;;;;;;3.65;1.70;;;;;;;27.06;55.72;97870.25;5027186;27;102829;-84
2022/06/24 13:43:04;;;;;;;3.20;1.70;;;;;;;26.45;56.82;97875.19;5029268;27;102743;-83
2022/06/24 13:45:32;;;;;;;2.38;1.77;;;;;;;26.60;56.32;97866.63;5051397;27;104253;-83
2022/06/24 13:48:06;;;;;;;3.63;1.60;;;;;;;27.05;55.96;97879.44;5022971;27;103213;-84
2022/06/24 13:50:35;;;;;;;2.77;1.70;;;;;;;26.55;56.40;97871.91;5022663;27;102840;-84
2022/06/24 13:53:05;;;;;;;1.35;1.20;;;;;;;26.89;55.07;97863.88;5038273;27;103683;-84
2022/06/24 13:55:33;;;;;;;3.95;1.65;;;;;;;26.55;57.05;97866.50;5029542;27;103239;-84
2022/06/24 13:58:01;;;;;;;1.88;1.60;;;;;;;26.05;57.98;97860.53;5046221;27;103203;-83
2022/06/24 14:00:29;;;;;;;2.50;1.67;;;;;;;25.98;58.85;97860.63;5045521;27;102833;-83
2022/06/24 14:03:00;;;;;;;3.88;1.80;;;;;;;26.25;58.19;97867.34;5034184;27;102805;-83
2022/06/24 14:05:29;;;;;;;1.60;1.50;;;;;;;26.25;58.75;97866.50;5045846;27;103115;-83
2022/06/24 14:07:57;;;;;;;2.22;1.90;;;;;;;25.82;61.74;97862.09;5029185;27;103920;-83
2022/06/24 14:10:29;;;;;;;2.88;1.90;;;;;;;26.09;60.47;97864.44;5026369;27;102956;-82
2022/06/24 14:12:58;;;;;;;2.85;1.70;;;;;;;25.92;61.91;97873.19;5039930;27;102666;-83
2022/06/24 14:15:26;;;;;;;3.88;2.65;;;;;;;25.49;63.08;97882.47;5029617;27;103862;-83
2022/06/24 14:17:55;;;;;;;4.10;2.90;;;;;;;25.09;64.68;97895.50;5035164;27;103400;-83
2022/06/24 14:20:24;;;;;;;4.32;2.38;;;;;;;25.18;64.65;97900.38;5042497;27;102631;-83
2022/06/24 14:25:44;;;;;;;6.00;2.58;;;;;;;24.60;68.61;97894.41;5021220;27;104324;-83
2022/06/24 14:28:14;;;;;;;2.83;2.33;;;;;;;24.36;68.20;97903.31;5020508;27;103220;-78
2022/06/24 14:30:45;;;;;;;4.37;2.40;;;;;;;24.25;68.64;97904.00;5029599;27;102821;-85
2022/06/24 14:33:13;;;;;;;3.40;2.40;;;;;;;24.57;68.29;97905.66;5042279;27;103774;-86
2022/06/24 14:35:41;;;;;;;3.08;2.30;;;;;;;24.14;70.39;97916.28;5021918;27;104199;-77
2022/06/24 14:40:56;;;;;;;4.72;2.85;;;;;;;24.07;71.02;97930.81;5037771;27;102679;-75
2022/06/24 14:43:32;;;;;;;6.77;3.77;;;;;;;23.75;73.66;97948.78;5029972;27;103932;-78
2022/06/24 14:46:00;;;;;;;6.97;3.20;;;;;;;23.48;74.65;97945.31;5031031;27;103542;-78
2022/06/24 14:48:29;;;;;;;3.93;2.93;;;;;;;22.95;76.10;97959.84;5036606;27;103187;-77
2022/06/24 14:50:57;;;;;;;3.28;2.30;;;;;;;23.05;75.53;97953.00;5036742;27;102772;-75
2022/06/24 14:53:24;;;;;;;4.22;2.75;;;;;;;23.23;76.20;97965.84;5036306;27;103823;-77
2022/06/24 14:55:52;;;;;;;4.38;2.55;;;;;;;23.09;76.32;97980.34;5021984;27;104191;-78
2022/06/24 14:58:22;;;;;;;4.07;2.47;;;;;;;22.33;79.91;98000.47;5023642;27;104113;-77
2022/06/24 15:00:50;;;;;;;3.23;2.27;;;;;;;22.33;79.92;98017.44;5039084;27;102652;-75
2022/06/24 15:03:30;;;;;;;6.40;3.05;;;;;;;21.78;85.28;98033.69;5030572;27;103074;-76
2022/06/24 15:05:59;;;;;;;3.57;2.50;;;;;;;22.38;84.58;98036.50;5025318;27;103125;-76
2022/06/24 15:08:28;;;;;;;4.32;2.40;;;;;;;22.46;83.42;98033.63;5034628;27;103197;-86
2022/06/24 15:10:56;;;;;;;2.70;1.90;;;;;;;21.84;84.56;98047.16;5026264;27;102828;-75
2022/06/24 15:13:25;;;;;;;3.08;1.83;;;;;;;21.67;85.65;98045.00;5042178;27;104101;-75
2022/06/24 15:15:53;;;;;;;1.20;1.10;;;;;;;22.21;83.26;98040.56;5036119;27;103371;-75
2022/06/24 15:18:21;;;;;;;2.90;1.40;;;;;;;21.63;84.34;98054.47;5036900;27;103319;-75
2022/06/24 15:20:52;;;;;;;2.40;1.10;;;;;;;21.76;85.14;98035.72;5024488;27;102765;-78
2022/06/24 15:23:32;;;;;;;1.40;1.05;;;;;;;22.14;83.92;98033.50;5046475;27;102720;-81
2022/06/24 15:26:01;;;;;;;4.80;1.80;;;;;;;22.39;84.01;98022.03;5041346;27;103980;-84
2022/06/24 15:28:30;;;;;;;3.10;1.30;;;;;;;22.72;81.46;98016.78;5036931;27;103382;-82
2022/06/24 15:30:58;;;;;;;1.97;1.37;;;;;;;22.42;82.45;98016.25;5040260;27;102819;-81
2022/06/24 15:33:26;;;;;;;2.95;1.50;;;;;;;22.27;82.59;98012.88;5033819;27;103703;-82
2022/06/24 15:35:54;;;;;;;3.75;1.50;;;;;;;22.04;84.19;98012.34;5020972;27;103478;-82
2022/06/24 15:38:22;;;;;;;3.45;1.90;;;;;;;22.09;84.05;98011.78;5042044;27;103321;-80
2022/06/24 15:40:50;;;;;;;1.98;1.48;;;;;;;22.31;83.86;98018.69;5048002;27;102964;-81